sensor_id;sensor_type;location;lat;lon;timestamp;temperature;humidity
69359;HTU21D;56520;49.066;8.660;2023-04-25T00:02:21;7.54;91.83
69359;HTU21D;56520;49.066;8.660;2023-04-25T00:04:47;7.56;91.73
69359;HTU21D;56520;49.066;8.660;2023-04-25T00:07:14;7.58;91.73
69359;HTU21D;56520;49.066;8.660;2023-04-25T00:09:40;7.60;91.59
69359;HTU21D;56520;49.066;8.660;2023-04-25T00:12:05;7.60;91.45
69359;HTU21D;56520;49.066;8.660;2023-04-25T00:14:31;7.59;91.35
69359;HTU21D;56520;49.066;8.660;2023-04-25T00:16:59;7.57;91.37
69359;HTU21D;56520;49.066;8.660;2023-04-25T00:19:25;7.58;91.32
69359;HTU21D;56520;49.066;8.660;2023-04-25T00:21:52;7.61;91.25
69359;HTU21D;56520;49.066;8.660;2023-04-25T00:24:19;7.64;91.11
69359;HTU21D;56520;49.066;8.660;2023-04-25T00:26:44;7.68;91.01
69359;HTU21D;56520;49.066;8.660;2023-04-25T00:29:09;7.72;90.83
69359;HTU21D;56520;49.066;8.660;2023-04-25T00:31:35;7.76;90.66
69359;HTU21D;56520;49.066;8.660;2023-04-25T00:34:00;7.79;90.67
69359;HTU21D;56520;49.066;8.660;2023-04-25T00:36:26;7.84;90.45
69359;HTU21D;56520;49.066;8.660;2023-04-25T00:38:53;7.86;90.27
69359;HTU21D;56520;49.066;8.660;2023-04-25T00:41:22;7.88;90.08
69359;HTU21D;56520;49.066;8.660;2023-04-25T00:43:48;7.91;89.70
69359;HTU21D;56520;49.066;8.660;2023-04-25T00:46:14;7.92;89.52
69359;HTU21D;56520;49.066;8.660;2023-04-25T00:48:39;7.93;89.44
69359;HTU21D;56520;49.066;8.660;2023-04-25T00:51:05;7.93;89.31
69359;HTU21D;56520;49.066;8.660;2023-04-25T00:53:31;7.90;89.21
69359;HTU21D;56520;49.066;8.660;2023-04-25T00:55:57;7.92;88.76
69359;HTU21D;56520;49.066;8.660;2023-04-25T00:58:23;7.93;88.61
69359;HTU21D;56520;49.066;8.660;2023-04-25T01:00:50;7.96;88.33
69359;HTU21D;56520;49.066;8.660;2023-04-25T01:03:17;7.94;88.07
69359;HTU21D;56520;49.066;8.660;2023-04-25T01:05:45;7.89;88.38
69359;HTU21D;56520;49.066;8.660;2023-04-25T01:08:12;7.86;88.38
69359;HTU21D;56520;49.066;8.660;2023-04-25T01:10:37;7.87;88.35
69359;HTU21D;56520;49.066;8.660;2023-04-25T01:13:03;7.85;88.47
69359;HTU21D;56520;49.066;8.660;2023-04-25T01:15:29;7.89;88.30
69359;HTU21D;56520;49.066;8.660;2023-04-25T01:17:54;7.91;88.18
69359;HTU21D;56520;49.066;8.660;2023-04-25T01:20:24;7.93;88.06
69359;HTU21D;56520;49.066;8.660;2023-04-25T01:22:50;7.96;87.80
69359;HTU21D;56520;49.066;8.660;2023-04-25T01:25:17;7.97;87.70
69359;HTU21D;56520;49.066;8.660;2023-04-25T01:27:42;7.98;87.68
69359;HTU21D;56520;49.066;8.660;2023-04-25T01:30:09;7.97;87.61
69359;HTU21D;56520;49.066;8.660;2023-04-25T01:32:35;7.98;86.70
69359;HTU21D;56520;49.066;8.660;2023-04-25T01:35:08;7.91;86.95
69359;HTU21D;56520;49.066;8.660;2023-04-25T01:37:38;7.86;87.32
69359;HTU21D;56520;49.066;8.660;2023-04-25T01:40:05;7.86;87.54
69359;HTU21D;56520;49.066;8.660;2023-04-25T01:42:35;7.93;87.12
69359;HTU21D;56520;49.066;8.660;2023-04-25T01:45:01;7.98;86.93
69359;HTU21D;56520;49.066;8.660;2023-04-25T01:47:27;8.01;86.59
69359;HTU21D;56520;49.066;8.660;2023-04-25T01:49:52;8.01;86.77
69359;HTU21D;56520;49.066;8.660;2023-04-25T01:52:18;8.02;86.83
69359;HTU21D;56520;49.066;8.660;2023-04-25T01:54:43;8.00;86.74
69359;HTU21D;56520;49.066;8.660;2023-04-25T01:57:13;7.99;86.87
69359;HTU21D;56520;49.066;8.660;2023-04-25T01:59:44;7.98;86.97
69359;HTU21D;56520;49.066;8.660;2023-04-25T02:02:10;7.96;87.19
69359;HTU21D;56520;49.066;8.660;2023-04-25T02:04:35;7.98;87.14
69359;HTU21D;56520;49.066;8.660;2023-04-25T02:07:01;7.98;87.10
69359;HTU21D;56520;49.066;8.660;2023-04-25T02:09:26;7.99;87.15
69359;HTU21D;56520;49.066;8.660;2023-04-25T02:11:52;8.01;86.92
69359;HTU21D;56520;49.066;8.660;2023-04-25T02:14:18;8.01;87.03
69359;HTU21D;56520;49.066;8.660;2023-04-25T02:16:43;8.03;86.98
69359;HTU21D;56520;49.066;8.660;2023-04-25T02:19:09;8.04;86.96
69359;HTU21D;56520;49.066;8.660;2023-04-25T02:21:35;8.03;86.83
69359;HTU21D;56520;49.066;8.660;2023-04-25T02:24:01;8.06;86.74
69359;HTU21D;56520;49.066;8.660;2023-04-25T02:26:26;8.06;86.52
69359;HTU21D;56520;49.066;8.660;2023-04-25T02:28:52;8.03;86.66
69359;HTU21D;56520;49.066;8.660;2023-04-25T02:31:17;8.06;86.60
69359;HTU21D;56520;49.066;8.660;2023-04-25T02:33:43;8.08;86.11
69359;HTU21D;56520;49.066;8.660;2023-04-25T02:36:08;8.05;86.45
69359;HTU21D;56520;49.066;8.660;2023-04-25T02:38:34;8.06;86.50
69359;HTU21D;56520;49.066;8.660;2023-04-25T02:40:59;8.03;86.64
69359;HTU21D;56520;49.066;8.660;2023-04-25T02:43:25;7.99;86.83
69359;HTU21D;56520;49.066;8.660;2023-04-25T02:45:50;7.97;87.80
69359;HTU21D;56520;49.066;8.660;2023-04-25T02:48:16;7.93;88.47
69359;HTU21D;56520;49.066;8.660;2023-04-25T02:50:41;7.86;88.62
69359;HTU21D;56520;49.066;8.660;2023-04-25T02:53:07;7.84;89.07
69359;HTU21D;56520;49.066;8.660;2023-04-25T02:55:33;7.75;89.36
69359;HTU21D;56520;49.066;8.660;2023-04-25T02:57:58;7.69;89.66
69359;HTU21D;56520;49.066;8.660;2023-04-25T03:00:23;7.64;90.04
69359;HTU21D;56520;49.066;8.660;2023-04-25T03:02:50;7.61;90.21
69359;HTU21D;56520;49.066;8.660;2023-04-25T03:05:16;7.58;90.14
69359;HTU21D;56520;49.066;8.660;2023-04-25T03:07:41;7.57;90.58
69359;HTU21D;56520;49.066;8.660;2023-04-25T03:10:09;7.56;90.60
69359;HTU21D;56520;49.066;8.660;2023-04-25T03:12:34;7.54;90.60
69359;HTU21D;56520;49.066;8.660;2023-04-25T03:15:00;7.50;90.57
69359;HTU21D;56520;49.066;8.660;2023-04-25T03:17:25;7.47;90.62
69359;HTU21D;56520;49.066;8.660;2023-04-25T03:19:51;7.44;90.66
69359;HTU21D;56520;49.066;8.660;2023-04-25T03:22:16;7.40;90.87
69359;HTU21D;56520;49.066;8.660;2023-04-25T03:24:42;7.33;90.95
69359;HTU21D;56520;49.066;8.660;2023-04-25T03:27:07;7.26;91.08
69359;HTU21D;56520;49.066;8.660;2023-04-25T03:29:33;7.19;91.27
69359;HTU21D;56520;49.066;8.660;2023-04-25T03:31:58;7.11;91.50
69359;HTU21D;56520;49.066;8.660;2023-04-25T03:34:23;7.03;91.76
69359;HTU21D;56520;49.066;8.660;2023-04-25T03:36:49;6.95;91.91
69359;HTU21D;56520;49.066;8.660;2023-04-25T03:39:14;6.90;92.04
69359;HTU21D;56520;49.066;8.660;2023-04-25T03:41:40;6.85;92.08
69359;HTU21D;56520;49.066;8.660;2023-04-25T03:44:05;6.81;92.13
69359;HTU21D;56520;49.066;8.660;2023-04-25T03:46:31;6.80;92.14
69359;HTU21D;56520;49.066;8.660;2023-04-25T03:48:59;6.76;92.16
69359;HTU21D;56520;49.066;8.660;2023-04-25T03:51:25;6.74;92.20
69359;HTU21D;56520;49.066;8.660;2023-04-25T03:53:51;6.72;92.24
69359;HTU21D;56520;49.066;8.660;2023-04-25T03:56:17;6.68;92.48
69359;HTU21D;56520;49.066;8.660;2023-04-25T03:58:42;6.57;92.60
69359;HTU21D;56520;49.066;8.660;2023-04-25T04:01:08;6.57;93.01
69359;HTU21D;56520;49.066;8.660;2023-04-25T04:03:34;6.49;93.17
69359;HTU21D;56520;49.066;8.660;2023-04-25T04:06:01;6.44;93.40
69359;HTU21D;56520;49.066;8.660;2023-04-25T04:08:29;6.41;93.41
69359;HTU21D;56520;49.066;8.660;2023-04-25T04:10:54;6.40;93.47
69359;HTU21D;56520;49.066;8.660;2023-04-25T04:13:20;6.42;93.40
69359;HTU21D;56520;49.066;8.660;2023-04-25T04:15:45;6.45;93.40
69359;HTU21D;56520;49.066;8.660;2023-04-25T04:18:11;6.51;93.27
69359;HTU21D;56520;49.066;8.660;2023-04-25T04:20:36;6.57;93.13
69359;HTU21D;56520;49.066;8.660;2023-04-25T04:23:02;6.64;92.98
69359;HTU21D;56520;49.066;8.660;2023-04-25T04:25:27;6.69;92.96
69359;HTU21D;56520;49.066;8.660;2023-04-25T04:27:54;6.75;93.04
69359;HTU21D;56520;49.066;8.660;2023-04-25T04:30:22;6.80;92.83
69359;HTU21D;56520;49.066;8.660;2023-04-25T04:32:55;6.82;92.92
69359;HTU21D;56520;49.066;8.660;2023-04-25T04:35:21;6.85;92.77
69359;HTU21D;56520;49.066;8.660;2023-04-25T04:37:47;6.88;92.64
69359;HTU21D;56520;49.066;8.660;2023-04-25T04:40:14;6.93;92.59
69359;HTU21D;56520;49.066;8.660;2023-04-25T04:42:41;6.97;92.47
69359;HTU21D;56520;49.066;8.660;2023-04-25T04:45:07;7.03;92.34
69359;HTU21D;56520;49.066;8.660;2023-04-25T04:47:32;7.09;92.21
69359;HTU21D;56520;49.066;8.660;2023-04-25T04:49:59;7.12;92.22
69359;HTU21D;56520;49.066;8.660;2023-04-25T04:52:24;7.15;92.18
69359;HTU21D;56520;49.066;8.660;2023-04-25T04:54:50;7.17;92.32
69359;HTU21D;56520;49.066;8.660;2023-04-25T04:57:15;7.18;92.26
69359;HTU21D;56520;49.066;8.660;2023-04-25T04:59:41;7.22;92.41
69359;HTU21D;56520;49.066;8.660;2023-04-25T05:02:07;7.25;92.51
69359;HTU21D;56520;49.066;8.660;2023-04-25T05:04:32;7.30;92.62
69359;HTU21D;56520;49.066;8.660;2023-04-25T05:06:58;7.38;92.43
69359;HTU21D;56520;49.066;8.660;2023-04-25T05:09:23;7.45;92.30
69359;HTU21D;56520;49.066;8.660;2023-04-25T05:11:51;7.54;92.29
69359;HTU21D;56520;49.066;8.660;2023-04-25T05:14:17;7.62;92.19
69359;HTU21D;56520;49.066;8.660;2023-04-25T05:16:43;7.62;91.91
69359;HTU21D;56520;49.066;8.660;2023-04-25T05:19:08;7.59;91.85
69359;HTU21D;56520;49.066;8.660;2023-04-25T05:21:34;7.58;91.90
69359;HTU21D;56520;49.066;8.660;2023-04-25T05:24:00;7.59;92.01
69359;HTU21D;56520;49.066;8.660;2023-04-25T05:26:25;7.63;92.03
69359;HTU21D;56520;49.066;8.660;2023-04-25T05:28:51;7.70;92.04
69359;HTU21D;56520;49.066;8.660;2023-04-25T05:31:18;7.76;91.98
69359;HTU21D;56520;49.066;8.660;2023-04-25T05:33:43;7.83;91.83
69359;HTU21D;56520;49.066;8.660;2023-04-25T05:36:08;7.89;91.08
69359;HTU21D;56520;49.066;8.660;2023-04-25T05:38:34;7.91;90.48
69359;HTU21D;56520;49.066;8.660;2023-04-25T05:40:59;7.94;90.31
69359;HTU21D;56520;49.066;8.660;2023-04-25T05:43:25;7.99;90.31
69359;HTU21D;56520;49.066;8.660;2023-04-25T05:45:50;8.11;90.08
69359;HTU21D;56520;49.066;8.660;2023-04-25T05:48:18;8.26;89.93
69359;HTU21D;56520;49.066;8.660;2023-04-25T05:50:44;8.39;89.73
69359;HTU21D;56520;49.066;8.660;2023-04-25T05:53:09;8.55;89.55
69359;HTU21D;56520;49.066;8.660;2023-04-25T05:55:35;8.68;89.47
69359;HTU21D;56520;49.066;8.660;2023-04-25T05:58:01;8.89;89.38
69359;HTU21D;56520;49.066;8.660;2023-04-25T06:00:26;9.02;89.01
69359;HTU21D;56520;49.066;8.660;2023-04-25T06:02:52;9.15;88.64
69359;HTU21D;56520;49.066;8.660;2023-04-25T06:05:17;9.33;87.95
69359;HTU21D;56520;49.066;8.660;2023-04-25T06:07:42;9.44;87.06
69359;HTU21D;56520;49.066;8.660;2023-04-25T06:10:09;9.56;86.06
69359;HTU21D;56520;49.066;8.660;2023-04-25T06:12:34;9.62;85.93
69359;HTU21D;56520;49.066;8.660;2023-04-25T06:15:00;9.68;85.53
69359;HTU21D;56520;49.066;8.660;2023-04-25T06:17:26;9.75;85.58
69359;HTU21D;56520;49.066;8.660;2023-04-25T06:19:51;9.81;85.32
69359;HTU21D;56520;49.066;8.660;2023-04-25T06:22:16;9.84;85.22
69359;HTU21D;56520;49.066;8.660;2023-04-25T06:24:42;9.85;85.21
69359;HTU21D;56520;49.066;8.660;2023-04-25T06:27:10;9.88;85.13
69359;HTU21D;56520;49.066;8.660;2023-04-25T06:29:36;9.88;84.35
69359;HTU21D;56520;49.066;8.660;2023-04-25T06:32:01;9.90;84.56
69359;HTU21D;56520;49.066;8.660;2023-04-25T06:34:26;9.92;83.85
69359;HTU21D;56520;49.066;8.660;2023-04-25T06:36:52;9.91;83.93
69359;HTU21D;56520;49.066;8.660;2023-04-25T06:39:17;9.91;83.52
69359;HTU21D;56520;49.066;8.660;2023-04-25T06:41:44;9.80;83.71
69359;HTU21D;56520;49.066;8.660;2023-04-25T06:44:09;9.65;83.87
69359;HTU21D;56520;49.066;8.660;2023-04-25T06:46:35;9.54;84.13
69359;HTU21D;56520;49.066;8.660;2023-04-25T06:49:01;9.47;84.09
69359;HTU21D;56520;49.066;8.660;2023-04-25T06:51:26;9.41;84.21
69359;HTU21D;56520;49.066;8.660;2023-04-25T06:53:54;9.44;84.13
69359;HTU21D;56520;49.066;8.660;2023-04-25T06:56:19;9.54;84.00
69359;HTU21D;56520;49.066;8.660;2023-04-25T06:58:46;9.61;83.55
69359;HTU21D;56520;49.066;8.660;2023-04-25T07:01:11;9.68;83.45
69359;HTU21D;56520;49.066;8.660;2023-04-25T07:03:36;9.74;83.28
69359;HTU21D;56520;49.066;8.660;2023-04-25T07:06:03;9.69;82.69
69359;HTU21D;56520;49.066;8.660;2023-04-25T07:08:29;9.61;82.80
69359;HTU21D;56520;49.066;8.660;2023-04-25T07:10:54;9.53;82.70
69359;HTU21D;56520;49.066;8.660;2023-04-25T07:13:20;9.52;82.97
69359;HTU21D;56520;49.066;8.660;2023-04-25T07:15:45;9.53;82.96
69359;HTU21D;56520;49.066;8.660;2023-04-25T07:18:12;9.57;82.65
69359;HTU21D;56520;49.066;8.660;2023-04-25T07:20:38;9.56;82.19
69359;HTU21D;56520;49.066;8.660;2023-04-25T07:23:03;9.51;81.93
69359;HTU21D;56520;49.066;8.660;2023-04-25T07:25:29;9.45;82.20
69359;HTU21D;56520;49.066;8.660;2023-04-25T07:27:55;9.37;82.58
69359;HTU21D;56520;49.066;8.660;2023-04-25T07:30:21;9.31;82.77
69359;HTU21D;56520;49.066;8.660;2023-04-25T07:32:47;9.25;82.70
69359;HTU21D;56520;49.066;8.660;2023-04-25T07:35:12;9.22;83.01
69359;HTU21D;56520;49.066;8.660;2023-04-25T07:37:38;9.29;82.79
69359;HTU21D;56520;49.066;8.660;2023-04-25T07:40:03;9.33;82.83
69359;HTU21D;56520;49.066;8.660;2023-04-25T07:42:30;9.40;82.52
69359;HTU21D;56520;49.066;8.660;2023-04-25T07:44:55;9.49;82.57
69359;HTU21D;56520;49.066;8.660;2023-04-25T07:47:21;9.59;82.52
69359;HTU21D;56520;49.066;8.660;2023-04-25T07:49:48;9.67;82.68
69359;HTU21D;56520;49.066;8.660;2023-04-25T07:52:14;9.79;82.47
69359;HTU21D;56520;49.066;8.660;2023-04-25T07:54:39;9.82;81.90
69359;HTU21D;56520;49.066;8.660;2023-04-25T07:57:05;9.78;82.07
69359;HTU21D;56520;49.066;8.660;2023-04-25T07:59:31;9.84;82.32
69359;HTU21D;56520;49.066;8.660;2023-04-25T08:01:57;9.83;82.14
69359;HTU21D;56520;49.066;8.660;2023-04-25T08:04:23;9.72;81.94
69359;HTU21D;56520;49.066;8.660;2023-04-25T08:06:49;9.59;82.07
69359;HTU21D;56520;49.066;8.660;2023-04-25T08:09:15;9.49;82.62
69359;HTU21D;56520;49.066;8.660;2023-04-25T08:11:41;9.42;82.87
69359;HTU21D;56520;49.066;8.660;2023-04-25T08:14:07;9.41;83.11
69359;HTU21D;56520;49.066;8.660;2023-04-25T08:16:32;9.46;83.15
69359;HTU21D;56520;49.066;8.660;2023-04-25T08:18:59;9.62;82.81
69359;HTU21D;56520;49.066;8.660;2023-04-25T08:21:25;9.75;82.20
69359;HTU21D;56520;49.066;8.660;2023-04-25T08:23:52;9.95;81.90
69359;HTU21D;56520;49.066;8.660;2023-04-25T08:26:17;10.12;81.58
69359;HTU21D;56520;49.066;8.660;2023-04-25T08:28:42;10.26;81.39
69359;HTU21D;56520;49.066;8.660;2023-04-25T08:31:08;10.34;81.05
69359;HTU21D;56520;49.066;8.660;2023-04-25T08:33:36;10.29;81.20
69359;HTU21D;56520;49.066;8.660;2023-04-25T08:36:02;10.26;81.45
69359;HTU21D;56520;49.066;8.660;2023-04-25T08:38:28;10.16;81.38
69359;HTU21D;56520;49.066;8.660;2023-04-25T08:40:53;10.01;81.85
69359;HTU21D;56520;49.066;8.660;2023-04-25T08:43:20;9.82;81.94
69359;HTU21D;56520;49.066;8.660;2023-04-25T08:45:46;9.64;82.65
69359;HTU21D;56520;49.066;8.660;2023-04-25T08:48:13;9.35;83.89
69359;HTU21D;56520;49.066;8.660;2023-04-25T08:50:53;8.87;86.02
69359;HTU21D;56520;49.066;8.660;2023-04-25T08:53:26;8.37;85.96
69359;HTU21D;56520;49.066;8.660;2023-04-25T08:55:54;7.98;86.57
69359;HTU21D;56520;49.066;8.660;2023-04-25T08:58:21;7.87;87.68
69359;HTU21D;56520;49.066;8.660;2023-04-25T09:00:47;7.76;88.29
69359;HTU21D;56520;49.066;8.660;2023-04-25T09:03:13;7.57;88.85
69359;HTU21D;56520;49.066;8.660;2023-04-25T09:05:42;7.45;89.14
69359;HTU21D;56520;49.066;8.660;2023-04-25T09:08:07;7.42;89.44
69359;HTU21D;56520;49.066;8.660;2023-04-25T09:10:34;7.38;89.95
69359;HTU21D;56520;49.066;8.660;2023-04-25T09:15:56;7.40;90.55
69359;HTU21D;56520;49.066;8.660;2023-04-25T09:18:22;7.48;90.37
69359;HTU21D;56520;49.066;8.660;2023-04-25T09:20:50;7.50;90.18
69359;HTU21D;56520;49.066;8.660;2023-04-25T09:23:16;7.53;90.21
69359;HTU21D;56520;49.066;8.660;2023-04-25T09:25:47;7.62;90.24
69359;HTU21D;56520;49.066;8.660;2023-04-25T09:28:13;7.76;90.05
69359;HTU21D;56520;49.066;8.660;2023-04-25T09:30:38;7.87;89.75
69359;HTU21D;56520;49.066;8.660;2023-04-25T09:33:05;7.90;89.50
69359;HTU21D;56520;49.066;8.660;2023-04-25T09:35:38;7.99;89.48
69359;HTU21D;56520;49.066;8.660;2023-04-25T09:38:14;8.21;89.35
69359;HTU21D;56520;49.066;8.660;2023-04-25T09:40:42;8.34;88.45
69359;HTU21D;56520;49.066;8.660;2023-04-25T09:43:26;8.37;88.00
69359;HTU21D;56520;49.066;8.660;2023-04-25T09:45:53;8.44;87.68
69359;HTU21D;56520;49.066;8.660;2023-04-25T09:48:22;8.53;87.56
69359;HTU21D;56520;49.066;8.660;2023-04-25T09:53:28;8.91;86.65
69359;HTU21D;56520;49.066;8.660;2023-04-25T09:55:53;9.04;86.21
69359;HTU21D;56520;49.066;8.660;2023-04-25T09:58:20;9.19;86.03
69359;HTU21D;56520;49.066;8.660;2023-04-25T10:00:46;9.33;85.71
69359;HTU21D;56520;49.066;8.660;2023-04-25T10:03:11;9.42;85.39
69359;HTU21D;56520;49.066;8.660;2023-04-25T10:05:37;9.33;84.24
69359;HTU21D;56520;49.066;8.660;2023-04-25T10:08:03;9.33;84.81
69359;HTU21D;56520;49.066;8.660;2023-04-25T10:10:30;9.22;84.63
69359;HTU21D;56520;49.066;8.660;2023-04-25T10:12:58;9.27;85.39
69359;HTU21D;56520;49.066;8.660;2023-04-25T10:15:24;9.31;85.38
69359;HTU21D;56520;49.066;8.660;2023-04-25T10:17:50;9.15;85.42
69359;HTU21D;56520;49.066;8.660;2023-04-25T10:20:16;9.12;85.87
69359;HTU21D;56520;49.066;8.660;2023-04-25T10:22:44;9.20;86.02
69359;HTU21D;56520;49.066;8.660;2023-04-25T10:25:10;9.25;85.71
69359;HTU21D;56520;49.066;8.660;2023-04-25T10:27:36;9.26;85.47
69359;HTU21D;56520;49.066;8.660;2023-04-25T10:30:08;9.30;85.16
69359;HTU21D;56520;49.066;8.660;2023-04-25T10:32:36;9.38;85.06
69359;HTU21D;56520;49.066;8.660;2023-04-25T10:38:16;9.34;85.98
69359;HTU21D;56520;49.066;8.660;2023-04-25T10:40:41;9.33;85.63
69359;HTU21D;56520;49.066;8.660;2023-04-25T10:43:36;9.31;85.67
69359;HTU21D;56520;49.066;8.660;2023-04-25T10:46:21;9.38;85.96
69359;HTU21D;56520;49.066;8.660;2023-04-25T10:48:49;9.46;85.13
69359;HTU21D;56520;49.066;8.660;2023-04-25T10:51:21;9.49;85.54
69359;HTU21D;56520;49.066;8.660;2023-04-25T10:53:56;9.53;84.71
69359;HTU21D;56520;49.066;8.660;2023-04-25T10:56:24;9.62;85.27
69359;HTU21D;56520;49.066;8.660;2023-04-25T10:58:50;9.74;84.35
69359;HTU21D;56520;49.066;8.660;2023-04-25T11:01:20;9.82;84.31
69359;HTU21D;56520;49.066;8.660;2023-04-25T11:03:46;9.88;83.69
69359;HTU21D;56520;49.066;8.660;2023-04-25T11:06:27;9.92;83.69
69359;HTU21D;56520;49.066;8.660;2023-04-25T11:08:54;9.97;83.04
69359;HTU21D;56520;49.066;8.660;2023-04-25T11:11:20;9.95;82.24
69359;HTU21D;56520;49.066;8.660;2023-04-25T11:13:49;9.86;82.85
69359;HTU21D;56520;49.066;8.660;2023-04-25T11:16:15;9.83;83.43
69359;HTU21D;56520;49.066;8.660;2023-04-25T11:18:44;9.76;82.77
69359;HTU21D;56520;49.066;8.660;2023-04-25T11:21:11;9.74;83.87
69359;HTU21D;56520;49.066;8.660;2023-04-25T11:23:36;9.81;83.97
69359;HTU21D;56520;49.066;8.660;2023-04-25T11:26:03;9.93;82.15
69359;HTU21D;56520;49.066;8.660;2023-04-25T11:28:28;9.92;82.50
69359;HTU21D;56520;49.066;8.660;2023-04-25T11:30:54;10.04;82.93
69359;HTU21D;56520;49.066;8.660;2023-04-25T11:33:24;10.22;82.66
69359;HTU21D;56520;49.066;8.660;2023-04-25T11:35:51;10.55;82.45
69359;HTU21D;56520;49.066;8.660;2023-04-25T11:38:17;10.82;80.62
69359;HTU21D;56520;49.066;8.660;2023-04-25T11:40:43;11.13;80.69
69359;HTU21D;56520;49.066;8.660;2023-04-25T11:43:09;11.57;80.41
69359;HTU21D;56520;49.066;8.660;2023-04-25T11:45:36;11.92;79.53
69359;HTU21D;56520;49.066;8.660;2023-04-25T11:48:02;12.18;76.74
69359;HTU21D;56520;49.066;8.660;2023-04-25T11:50:28;12.21;77.68
69359;HTU21D;56520;49.066;8.660;2023-04-25T11:52:56;12.12;75.51
69359;HTU21D;56520;49.066;8.660;2023-04-25T11:55:22;11.84;76.52
69359;HTU21D;56520;49.066;8.660;2023-04-25T11:57:48;11.67;77.67
69359;HTU21D;56520;49.066;8.660;2023-04-25T12:00:17;11.63;76.78
69359;HTU21D;56520;49.066;8.660;2023-04-25T12:02:45;11.70;77.44
69359;HTU21D;56520;49.066;8.660;2023-04-25T12:05:11;11.91;77.34
69359;HTU21D;56520;49.066;8.660;2023-04-25T12:07:37;12.10;77.06
69359;HTU21D;56520;49.066;8.660;2023-04-25T12:10:07;12.28;77.10
69359;HTU21D;56520;49.066;8.660;2023-04-25T12:12:36;12.36;75.05
69359;HTU21D;56520;49.066;8.660;2023-04-25T12:15:15;12.33;75.56
69359;HTU21D;56520;49.066;8.660;2023-04-25T12:17:53;12.35;76.67
69359;HTU21D;56520;49.066;8.660;2023-04-25T12:20:23;12.34;77.24
69359;HTU21D;56520;49.066;8.660;2023-04-25T12:22:50;12.37;75.49
69359;HTU21D;56520;49.066;8.660;2023-04-25T12:28:14;12.18;75.76
69359;HTU21D;56520;49.066;8.660;2023-04-25T12:33:31;12.44;75.13
69359;HTU21D;56520;49.066;8.660;2023-04-25T12:35:57;12.52;74.70
69359;HTU21D;56520;49.066;8.660;2023-04-25T12:38:28;12.48;73.96
69359;HTU21D;56520;49.066;8.660;2023-04-25T12:40:55;12.43;74.05
69359;HTU21D;56520;49.066;8.660;2023-04-25T12:43:23;12.55;73.66
69359;HTU21D;56520;49.066;8.660;2023-04-25T12:45:50;12.73;72.77
69359;HTU21D;56520;49.066;8.660;2023-04-25T12:48:16;12.92;73.12
69359;HTU21D;56520;49.066;8.660;2023-04-25T12:50:42;13.10;71.17
69359;HTU21D;56520;49.066;8.660;2023-04-25T12:53:07;13.19;69.86
69359;HTU21D;56520;49.066;8.660;2023-04-25T12:55:33;13.10;69.86
69359;HTU21D;56520;49.066;8.660;2023-04-25T12:57:58;13.10;70.60
69359;HTU21D;56520;49.066;8.660;2023-04-25T13:00:24;13.16;69.52
69359;HTU21D;56520;49.066;8.660;2023-04-25T13:02:49;13.11;68.30
69359;HTU21D;56520;49.066;8.660;2023-04-25T13:05:15;13.00;68.95
69359;HTU21D;56520;49.066;8.660;2023-04-25T13:07:40;12.75;69.80
69359;HTU21D;56520;49.066;8.660;2023-04-25T13:10:07;12.34;69.53
69359;HTU21D;56520;49.066;8.660;2023-04-25T13:12:32;11.81;72.17
69359;HTU21D;56520;49.066;8.660;2023-04-25T13:14:58;11.49;74.16
69359;HTU21D;56520;49.066;8.660;2023-04-25T13:17:23;11.39;75.23
69359;HTU21D;56520;49.066;8.660;2023-04-25T13:19:48;11.33;74.92
69359;HTU21D;56520;49.066;8.660;2023-04-25T13:22:14;11.38;75.33
69359;HTU21D;56520;49.066;8.660;2023-04-25T13:24:42;11.45;74.70
69359;HTU21D;56520;49.066;8.660;2023-04-25T13:27:07;11.60;74.77
69359;HTU21D;56520;49.066;8.660;2023-04-25T13:29:33;11.77;74.94
69359;HTU21D;56520;49.066;8.660;2023-04-25T13:32:00;12.00;74.96
69359;HTU21D;56520;49.066;8.660;2023-04-25T13:34:26;12.23;73.08
69359;HTU21D;56520;49.066;8.660;2023-04-25T13:36:52;12.30;73.25
69359;HTU21D;56520;49.066;8.660;2023-04-25T13:39:17;12.31;73.44
69359;HTU21D;56520;49.066;8.660;2023-04-25T13:41:43;12.41;73.60
69359;HTU21D;56520;49.066;8.660;2023-04-25T13:44:08;12.53;72.41
69359;HTU21D;56520;49.066;8.660;2023-04-25T13:46:33;12.70;71.96
69359;HTU21D;56520;49.066;8.660;2023-04-25T13:48:59;12.91;70.57
69359;HTU21D;56520;49.066;8.660;2023-04-25T13:51:24;13.07;71.10
69359;HTU21D;56520;49.066;8.660;2023-04-25T13:53:51;13.25;69.03
69359;HTU21D;56520;49.066;8.660;2023-04-25T13:56:18;13.19;69.10
69359;HTU21D;56520;49.066;8.660;2023-04-25T13:58:44;13.03;68.66
69359;HTU21D;56520;49.066;8.660;2023-04-25T14:01:10;12.93;67.93
69359;HTU21D;56520;49.066;8.660;2023-04-25T14:03:35;12.95;69.27
69359;HTU21D;56520;49.066;8.660;2023-04-25T14:06:01;13.17;68.13
69359;HTU21D;56520;49.066;8.660;2023-04-25T14:08:26;13.48;68.52
69359;HTU21D;56520;49.066;8.660;2023-04-25T14:10:52;13.80;67.74
69359;HTU21D;56520;49.066;8.660;2023-04-25T14:13:19;13.96;67.73
69359;HTU21D;56520;49.066;8.660;2023-04-25T14:15:44;13.97;67.96
69359;HTU21D;56520;49.066;8.660;2023-04-25T14:18:10;13.98;65.55
69359;HTU21D;56520;49.066;8.660;2023-04-25T14:20:35;13.78;65.41
69359;HTU21D;56520;49.066;8.660;2023-04-25T14:23:01;13.61;66.46
69359;HTU21D;56520;49.066;8.660;2023-04-25T14:25:27;13.45;67.14
69359;HTU21D;56520;49.066;8.660;2023-04-25T14:27:52;13.29;66.91
69359;HTU21D;56520;49.066;8.660;2023-04-25T14:30:19;13.09;67.14
69359;HTU21D;56520;49.066;8.660;2023-04-25T14:32:45;12.86;67.33
69359;HTU21D;56520;49.066;8.660;2023-04-25T14:35:10;12.71;67.55
69359;HTU21D;56520;49.066;8.660;2023-04-25T14:37:36;12.75;68.55
69359;HTU21D;56520;49.066;8.660;2023-04-25T14:40:01;13.09;68.28
69359;HTU21D;56520;49.066;8.660;2023-04-25T14:42:27;13.39;67.58
69359;HTU21D;56520;49.066;8.660;2023-04-25T14:44:52;13.49;67.54
69359;HTU21D;56520;49.066;8.660;2023-04-25T14:47:18;13.36;65.77
69359;HTU21D;56520;49.066;8.660;2023-04-25T14:49:43;13.00;67.00
69359;HTU21D;56520;49.066;8.660;2023-04-25T14:52:09;12.57;67.26
69359;HTU21D;56520;49.066;8.660;2023-04-25T14:54:34;12.19;68.68
69359;HTU21D;56520;49.066;8.660;2023-04-25T14:57:00;11.93;70.31
69359;HTU21D;56520;49.066;8.660;2023-04-25T14:59:26;11.79;70.97
69359;HTU21D;56520;49.066;8.660;2023-04-25T15:01:52;11.62;71.52
69359;HTU21D;56520;49.066;8.660;2023-04-25T15:04:18;11.46;72.25
69359;HTU21D;56520;49.066;8.660;2023-04-25T15:06:43;11.44;73.47
69359;HTU21D;56520;49.066;8.660;2023-04-25T15:09:09;11.45;73.54
69359;HTU21D;56520;49.066;8.660;2023-04-25T15:11:36;11.60;73.24
69359;HTU21D;56520;49.066;8.660;2023-04-25T15:14:01;11.76;73.70
69359;HTU21D;56520;49.066;8.660;2023-04-25T15:16:27;11.91;71.48
69359;HTU21D;56520;49.066;8.660;2023-04-25T15:18:52;12.02;71.42
69359;HTU21D;56520;49.066;8.660;2023-04-25T15:21:18;12.22;70.37
69359;HTU21D;56520;49.066;8.660;2023-04-25T15:23:43;12.52;70.16
69359;HTU21D;56520;49.066;8.660;2023-04-25T15:26:09;12.91;69.81
69359;HTU21D;56520;49.066;8.660;2023-04-25T15:28:34;13.16;66.68
69359;HTU21D;56520;49.066;8.660;2023-04-25T15:31:00;13.16;67.49
69359;HTU21D;56520;49.066;8.660;2023-04-25T15:33:25;13.07;68.07
69359;HTU21D;56520;49.066;8.660;2023-04-25T15:35:51;12.90;69.78
69359;HTU21D;56520;49.066;8.660;2023-04-25T15:38:16;12.66;69.42